createdAt,value
2019-03-15T00:00:29.729Z,303.31
2019-03-15T00:01:29.693Z,303.76
2019-03-15T00:02:29.790Z,303.85
2019-03-15T00:03:29.673Z,304.26
2019-03-15T00:04:29.676Z,304.45
2019-03-15T00:05:29.786Z,303.62
2019-03-15T00:06:29.651Z,303.26
2019-03-15T00:07:29.692Z,304.11
2019-03-15T00:08:29.627Z,303.77
2019-03-15T00:09:29.638Z,303.79
2019-03-15T00:10:29.700Z,303.82
2019-03-15T00:11:29.610Z,303.33
2019-03-15T00:12:29.604Z,303.98
2019-03-15T00:13:29.651Z,304.00
2019-03-15T00:14:29.613Z,303.36
2019-03-15T00:15:29.579Z,303.33
2019-03-15T00:16:29.621Z,302.89
2019-03-15T00:17:29.593Z,303.28
2019-03-15T00:18:29.511Z,303.05
2019-03-15T00:19:29.514Z,304.04
2019-03-15T00:20:29.502Z,304.47
2019-03-15T00:21:29.516Z,304.13
2019-03-15T00:22:29.467Z,304.20
2019-03-15T00:23:29.475Z,303.64
2019-03-15T00:24:29.717Z,304.37
2019-03-15T00:25:29.485Z,303.69
2019-03-15T00:26:29.476Z,303.61
2019-03-15T00:27:29.426Z,303.50
2019-03-15T00:28:29.424Z,303.45
2019-03-15T00:29:29.474Z,303.73
2019-03-15T00:30:29.946Z,303.67
2019-03-15T00:31:29.402Z,304.25
2019-03-15T00:32:30.494Z,303.62
2019-03-15T00:33:30.108Z,304.56
2019-03-15T00:34:29.376Z,303.99
2019-03-15T00:35:29.427Z,304.01
2019-03-15T00:36:30.028Z,304.35
2019-03-15T00:37:29.418Z,304.20
2019-03-15T00:38:29.328Z,303.75
2019-03-15T00:39:29.339Z,304.23
2019-03-15T00:40:29.948Z,304.21
2019-03-15T00:41:29.949Z,304.49
2019-03-15T00:42:29.309Z,304.86
2019-03-15T00:43:29.949Z,304.08
2019-03-15T00:44:29.271Z,304.67
2019-03-15T00:45:29.235Z,304.26
2019-03-15T00:46:29.609Z,304.03
2019-03-15T00:47:29.949Z,303.81
2019-03-15T00:48:29.352Z,304.25
2019-03-15T00:49:29.244Z,303.75
2019-03-15T00:50:29.208Z,303.54
2019-03-15T00:51:30.035Z,303.70
2019-03-15T00:52:29.156Z,304.12
2019-03-15T00:53:29.128Z,304.51
2019-03-15T00:54:29.142Z,304.48
2019-03-15T00:55:29.164Z,304.48
2019-03-15T00:56:29.108Z,303.63
2019-03-15T00:57:29.191Z,304.41
2019-03-15T00:58:29.102Z,303.14
2019-03-15T00:59:30.044Z,303.57
2019-03-15T01:00:29.102Z,304.13
2019-03-15T01:01:29.110Z,304.53
2019-03-15T01:02:29.054Z,303.77
2019-03-15T01:03:29.028Z,303.82
2019-03-15T01:04:29.016Z,303.94
2019-03-15T01:05:29.019Z,303.65
2019-03-15T01:06:28.985Z,304.08
2019-03-15T01:07:28.988Z,303.59
2019-03-15T01:08:29.024Z,303.06
2019-03-15T01:09:29.129Z,303.44
2019-03-15T01:10:28.933Z,303.87
2019-03-15T01:11:28.987Z,303.92
2019-03-15T01:12:28.984Z,303.59
2019-03-15T01:13:28.930Z,303.36
2019-03-15T01:14:29.165Z,304.13
2019-03-15T01:15:28.893Z,303.59
2019-03-15T01:16:28.875Z,303.39
2019-03-15T01:17:28.880Z,303.69
2019-03-15T01:18:29.078Z,303.51
2019-03-15T01:19:28.982Z,303.31
2019-03-15T01:20:29.086Z,304.24
2019-03-15T01:21:28.882Z,304.27
2019-03-15T01:22:28.888Z,303.65
2019-03-15T01:23:37.558Z,303.44
2019-03-15T01:24:28.781Z,303.41
2019-03-15T01:25:28.963Z,304.38
2019-03-15T01:26:28.815Z,303.63
2019-03-15T01:27:28.794Z,303.32
2019-03-15T01:28:28.737Z,303.40
2019-03-15T01:29:28.749Z,303.68
2019-03-15T01:30:28.787Z,303.89
2019-03-15T01:31:28.890Z,303.47
2019-03-15T01:32:28.851Z,303.47
2019-03-15T01:33:28.740Z,303.25
2019-03-15T01:34:28.766Z,303.60
2019-03-15T01:35:28.687Z,303.65
2019-03-15T01:36:28.676Z,303.45
2019-03-15T01:37:28.836Z,303.11
2019-03-15T01:38:28.662Z,303.01
2019-03-15T01:39:28.648Z,302.74
2019-03-15T01:40:28.660Z,303.42
2019-03-15T01:41:28.909Z,303.79
2019-03-15T01:42:28.599Z,304.52
2019-03-15T01:43:28.663Z,303.73
2019-03-15T01:44:28.586Z,303.74
2019-03-15T01:45:28.566Z,304.27
2019-03-15T01:46:28.708Z,304.29
2019-03-15T01:47:28.597Z,302.91
2019-03-15T01:48:28.582Z,302.99
2019-03-15T01:49:28.694Z,303.20
2019-03-15T01:50:28.510Z,303.01
2019-03-15T01:51:28.551Z,303.63
2019-03-15T01:52:28.574Z,303.74
2019-03-15T01:53:28.487Z,303.30
2019-03-15T01:54:28.483Z,303.81
2019-03-15T01:55:28.492Z,303.04
2019-03-15T01:56:28.625Z,303.34
2019-03-15T01:57:28.448Z,304.34
2019-03-15T01:58:28.532Z,304.28
2019-03-15T01:59:28.452Z,303.24
2019-03-15T02:00:28.433Z,303.35
2019-03-15T02:01:28.418Z,303.15
2019-03-15T02:02:28.490Z,303.82
2019-03-15T02:03:28.435Z,303.57
2019-03-15T02:04:28.381Z,304.26
2019-03-15T02:05:28.422Z,303.46
2019-03-15T02:06:28.357Z,303.58
2019-03-15T02:07:28.368Z,304.05
2019-03-15T02:08:28.331Z,303.67
2019-03-15T02:09:28.323Z,303.69
2019-03-15T02:10:28.332Z,303.69
2019-03-15T02:11:29.408Z,303.71
2019-03-15T02:12:28.441Z,304.27
2019-03-15T02:13:28.319Z,303.56
2019-03-15T02:14:28.277Z,303.73
2019-03-15T02:15:28.379Z,303.52
2019-03-15T02:16:28.343Z,303.93
2019-03-15T02:17:28.479Z,304.20
2019-03-15T02:18:28.208Z,304.52
2019-03-15T02:19:28.291Z,304.33
2019-03-15T02:20:28.279Z,304.15
2019-03-15T02:21:28.242Z,304.47
2019-03-15T02:22:28.285Z,304.16
2019-03-15T02:23:28.167Z,303.51
2019-03-15T02:24:28.201Z,303.64
2019-03-15T02:25:28.125Z,304.03
2019-03-15T02:26:28.155Z,303.94
2019-03-15T02:27:28.171Z,304.55
2019-03-15T02:28:28.144Z,303.98
2019-03-15T02:29:28.088Z,303.60
2019-03-15T02:30:28.112Z,303.52
2019-03-15T02:31:28.077Z,305.03
2019-03-15T02:32:28.106Z,304.33
2019-03-15T02:33:28.077Z,304.12
2019-03-15T02:34:28.123Z,304.08
2019-03-15T02:35:28.050Z,303.80
2019-03-15T02:36:28.052Z,304.38
2019-03-15T02:37:28.050Z,304.45
2019-03-15T02:38:28.005Z,303.57
2019-03-15T02:39:27.997Z,303.61
2019-03-15T02:40:28.098Z,304.82
2019-03-15T02:41:27.986Z,303.49
2019-03-15T02:42:27.966Z,303.39
2019-03-15T02:43:27.972Z,303.78
2019-03-15T02:44:27.942Z,303.25
2019-03-15T02:45:27.927Z,303.42
2019-03-15T02:46:27.934Z,303.60
2019-03-15T02:47:27.918Z,303.73
2019-03-15T02:48:27.903Z,303.43
2019-03-15T02:49:28.085Z,303.16
2019-03-15T02:50:29.257Z,303.53
2019-03-15T02:51:27.851Z,303.54
2019-03-15T02:52:27.857Z,303.39
2019-03-15T02:53:27.847Z,304.46
2019-03-15T02:54:27.897Z,304.53
2019-03-15T02:55:27.862Z,304.61
2019-03-15T02:56:27.807Z,304.76
2019-03-15T02:57:27.826Z,304.26
2019-03-15T02:58:28.152Z,304.36
2019-03-15T02:59:27.826Z,304.51
2019-03-15T03:00:27.832Z,304.11
2019-03-15T03:01:27.792Z,304.14
2019-03-15T03:02:28.022Z,303.94
2019-03-15T03:03:27.799Z,304.19
2019-03-15T03:04:27.754Z,304.63
2019-03-15T03:05:27.775Z,304.17
2019-03-15T03:06:28.206Z,304.10
2019-03-15T03:07:27.709Z,305.00
2019-03-15T03:08:27.684Z,304.00
2019-03-15T03:09:27.660Z,303.85
2019-03-15T03:10:29.195Z,304.21
2019-03-15T03:11:27.643Z,304.42
2019-03-15T03:12:27.697Z,304.33
2019-03-15T03:13:27.618Z,304.98
2019-03-15T03:14:27.611Z,305.04
2019-03-15T03:15:27.605Z,304.09
2019-03-15T03:16:27.590Z,304.52
2019-03-15T03:17:27.625Z,304.11
2019-03-15T03:18:27.654Z,303.92
2019-03-15T03:19:28.184Z,304.14
2019-03-15T03:20:27.623Z,305.18
2019-03-15T03:21:27.672Z,304.11
2019-03-15T03:22:27.531Z,304.88
2019-03-15T03:23:27.677Z,305.33
2019-03-15T03:24:27.548Z,304.13
2019-03-15T03:25:27.710Z,305.31
2019-03-15T03:26:27.495Z,304.67
2019-03-15T03:27:27.479Z,305.00
2019-03-15T03:28:28.056Z,304.94
2019-03-15T03:29:27.713Z,304.65
2019-03-15T03:30:27.504Z,304.63
2019-03-15T03:31:27.452Z,304.38
2019-03-15T03:32:27.442Z,304.85
2019-03-15T03:33:27.414Z,303.85
2019-03-15T03:34:27.410Z,304.74
2019-03-15T03:35:27.540Z,305.05
2019-03-15T03:36:27.376Z,303.65
2019-03-15T03:37:27.368Z,304.48
2019-03-15T03:38:27.341Z,304.19
2019-03-15T03:39:27.421Z,304.25
2019-03-15T03:40:28.493Z,304.56
2019-03-15T03:41:27.369Z,304.97
2019-03-15T03:42:27.516Z,304.32
2019-03-15T03:43:27.325Z,304.52
2019-03-15T03:44:27.332Z,304.52
2019-03-15T03:45:27.293Z,304.25
2019-03-15T03:46:27.403Z,304.13
2019-03-15T03:47:27.428Z,304.52
2019-03-15T03:48:27.297Z,304.22
2019-03-15T03:49:27.500Z,303.87
2019-03-15T03:50:27.258Z,304.40
2019-03-15T03:51:27.363Z,304.37
2019-03-15T03:52:27.583Z,304.17
2019-03-15T03:53:27.279Z,304.83
2019-03-15T03:54:27.214Z,304.43
2019-03-15T03:55:27.192Z,305.08
2019-03-15T03:56:27.214Z,305.32
2019-03-15T03:57:27.165Z,303.94
2019-03-15T03:58:27.216Z,304.27
2019-03-15T03:59:27.141Z,304.57
2019-03-15T04:00:27.139Z,304.15
2019-03-15T04:01:27.130Z,305.05
2019-03-15T04:02:27.204Z,304.03
2019-03-15T04:03:27.110Z,304.36
2019-03-15T04:04:27.175Z,304.35
2019-03-15T04:05:27.119Z,304.42
2019-03-15T04:06:27.158Z,305.07
2019-03-15T04:07:27.215Z,304.63
2019-03-15T04:08:27.098Z,304.73
2019-03-15T04:09:27.143Z,304.66
2019-03-15T04:10:27.015Z,304.99
2019-03-15T04:11:27.032Z,304.83
2019-03-15T04:12:27.001Z,304.46
2019-03-15T04:13:27.307Z,304.33
2019-03-15T04:14:27.153Z,304.64
2019-03-15T04:15:27.048Z,304.10
2019-03-15T04:16:27.029Z,304.47
2019-03-15T04:17:26.975Z,304.72
2019-03-15T04:18:27.022Z,304.22
2019-03-15T04:19:27.001Z,303.20
2019-03-15T04:20:26.951Z,304.47
2019-03-15T04:21:26.918Z,304.45
2019-03-15T04:22:26.927Z,304.82
2019-03-15T04:23:26.891Z,304.35
2019-03-15T04:24:26.887Z,304.69
2019-03-15T04:25:27.170Z,304.62
2019-03-15T04:26:26.907Z,305.26
2019-03-15T04:27:26.952Z,305.11
2019-03-15T04:28:26.848Z,303.87
2019-03-15T04:29:26.858Z,303.81
2019-03-15T04:30:27.060Z,304.24
2019-03-15T04:31:26.915Z,304.14
2019-03-15T04:32:26.837Z,303.95
2019-03-15T04:33:26.798Z,304.23
2019-03-15T04:34:28.318Z,303.46
2019-03-15T04:35:26.808Z,304.23
2019-03-15T04:36:26.768Z,304.99
2019-03-15T04:37:26.875Z,305.21
2019-03-15T04:38:26.788Z,305.61
2019-03-15T04:39:26.826Z,305.53
2019-03-15T04:40:26.756Z,305.88
2019-03-15T04:41:26.687Z,303.83
2019-03-15T04:42:26.715Z,304.15
2019-03-15T04:43:26.702Z,304.24
2019-03-15T04:44:26.845Z,304.61
2019-03-15T04:45:27.018Z,304.49
2019-03-15T04:46:26.734Z,304.80
2019-03-15T04:47:26.927Z,303.67
2019-03-15T04:48:26.662Z,304.08
2019-03-15T04:49:26.742Z,305.27
2019-03-15T04:50:26.612Z,304.57
2019-03-15T04:51:26.656Z,304.94
2019-03-15T04:52:26.832Z,304.42
2019-03-15T04:53:26.587Z,305.01
2019-03-15T04:54:26.582Z,304.01
2019-03-15T04:55:26.559Z,304.59
2019-03-15T04:56:26.545Z,304.60
2019-03-15T04:57:26.651Z,304.14
2019-03-15T04:58:26.520Z,304.21
2019-03-15T04:59:26.533Z,304.37
2019-03-15T05:00:26.492Z,303.88
2019-03-15T05:01:26.484Z,304.47
2019-03-15T05:02:26.494Z,303.93
2019-03-15T05:03:26.473Z,304.53
2019-03-15T05:04:26.492Z,304.88
2019-03-15T05:05:26.460Z,305.07
2019-03-15T05:06:26.436Z,303.98
2019-03-15T05:07:26.438Z,304.21
2019-03-15T05:08:26.442Z,305.59
2019-03-15T05:09:26.407Z,304.87
2019-03-15T05:10:26.397Z,305.20
2019-03-15T05:11:26.421Z,305.05
2019-03-15T05:12:26.477Z,305.32
2019-03-15T05:13:26.390Z,305.05
2019-03-15T05:15:44.768Z,302.59
2019-03-15T05:16:44.737Z,304.12
2019-03-15T05:17:55.187Z,304.96
2019-03-15T05:18:54.139Z,306.64
2019-03-15T05:19:44.715Z,304.42
2019-03-15T05:20:44.713Z,304.35
2019-03-15T05:21:55.690Z,304.95
2019-03-15T05:22:55.233Z,305.31
2019-03-15T05:23:55.863Z,304.15
2019-03-15T05:24:53.310Z,304.88
2019-03-15T05:25:53.857Z,304.75
2019-03-15T05:26:44.661Z,304.10
2019-03-15T05:27:44.710Z,304.17
2019-03-15T05:28:44.621Z,305.09
2019-03-15T05:29:44.668Z,305.65
2019-03-15T05:30:44.708Z,305.23
2019-03-15T05:31:44.617Z,305.26
2019-03-15T05:32:44.584Z,305.02
2019-03-15T05:33:44.555Z,305.17
2019-03-15T05:34:44.556Z,305.22
2019-03-15T05:35:44.581Z,305.24
2019-03-15T05:36:44.674Z,305.07
2019-03-15T05:37:44.579Z,304.80
2019-03-15T05:38:44.531Z,305.37
2019-03-15T05:39:44.521Z,304.76
2019-03-15T05:40:44.537Z,306.64
2019-03-15T05:41:44.496Z,304.43
2019-03-15T05:42:44.490Z,305.15
2019-03-15T05:43:44.463Z,305.18
2019-03-15T05:44:44.450Z,304.86
2019-03-15T05:45:44.432Z,306.06
2019-03-15T05:46:44.469Z,305.15
2019-03-15T05:47:44.426Z,305.14
2019-03-15T05:48:44.518Z,305.65
2019-03-15T05:49:44.441Z,305.04
2019-03-15T05:50:44.418Z,305.46
2019-03-15T05:51:44.399Z,306.16
2019-03-15T05:52:44.394Z,305.76
2019-03-15T05:53:44.361Z,306.05
2019-03-15T05:54:44.340Z,305.46
2019-03-15T05:55:44.355Z,306.77
2019-03-15T05:56:44.356Z,307.11
2019-03-15T05:57:44.359Z,306.58
2019-03-15T05:58:44.297Z,306.66
2019-03-15T05:59:44.327Z,306.62
2019-03-15T06:00:44.289Z,307.46
2019-03-15T06:01:44.278Z,305.66
2019-03-15T06:02:44.303Z,305.43
2019-03-15T06:03:48.795Z,305.57
2019-03-15T06:04:44.274Z,305.87
2019-03-15T06:05:44.245Z,305.74
2019-03-15T06:06:44.239Z,306.29
2019-03-15T06:07:44.222Z,306.02
2019-03-15T06:08:44.239Z,307.34
2019-03-15T06:09:44.277Z,306.00
2019-03-15T06:10:44.167Z,305.82
2019-03-15T06:11:44.167Z,306.40
2019-03-15T06:12:44.205Z,306.36
2019-03-15T06:13:44.156Z,305.89
2019-03-15T06:14:46.794Z,305.89
2019-03-15T06:15:44.156Z,305.80
2019-03-15T06:16:44.167Z,306.28
2019-03-15T06:17:44.151Z,306.39
2019-03-15T06:18:44.095Z,305.58
2019-03-15T06:19:44.118Z,305.15
2019-03-15T06:20:44.074Z,305.78
2019-03-15T06:21:44.056Z,306.44
2019-03-15T06:22:44.120Z,305.67
2019-03-15T06:23:44.061Z,306.30
2019-03-15T06:24:44.076Z,305.97
2019-03-15T06:25:44.027Z,305.97
2019-03-15T06:26:44.047Z,305.64
2019-03-15T06:27:44.078Z,305.68
2019-03-15T06:28:43.985Z,305.44
2019-03-15T06:29:44.024Z,306.23
2019-03-15T06:30:43.987Z,306.61
2019-03-15T06:31:44.001Z,305.71
2019-03-15T06:32:43.945Z,305.07
2019-03-15T06:33:43.933Z,305.03
2019-03-15T06:34:43.952Z,305.96
2019-03-15T06:35:43.942Z,306.42
2019-03-15T06:36:43.914Z,305.29
2019-03-15T06:37:43.912Z,305.50
2019-03-15T06:38:44.379Z,305.63
2019-03-15T06:39:43.918Z,305.36
2019-03-15T06:40:43.855Z,305.80
2019-03-15T06:41:43.870Z,306.46
2019-03-15T06:42:44.001Z,306.23
2019-03-15T06:43:43.860Z,306.21
2019-03-15T06:44:57.085Z,306.18
2019-03-15T06:45:44.816Z,305.48
2019-03-15T06:46:43.866Z,304.60
2019-03-15T06:47:43.831Z,305.68
2019-03-15T06:48:45.285Z,306.17
2019-03-15T06:49:43.790Z,305.71
2019-03-15T06:50:43.818Z,307.45
2019-03-15T06:51:43.732Z,306.97
2019-03-15T06:52:43.722Z,306.37
2019-03-15T06:53:43.773Z,305.35
2019-03-15T06:54:43.758Z,305.48
2019-03-15T06:55:43.700Z,305.25
2019-03-15T06:56:43.731Z,305.65
2019-03-15T06:57:43.680Z,305.98
2019-03-15T06:58:43.664Z,306.56
2019-03-15T06:59:43.675Z,305.94
2019-03-15T07:00:43.669Z,305.44
2019-03-15T07:01:43.634Z,305.38
2019-03-15T07:02:43.670Z,304.80
2019-03-15T07:03:44.354Z,305.10
2019-03-15T07:04:43.659Z,305.17
2019-03-15T07:05:43.619Z,305.38
2019-03-15T07:06:43.650Z,307.29
2019-03-15T07:07:43.664Z,305.97
2019-03-15T07:08:43.583Z,305.38
2019-03-15T07:09:43.541Z,305.40
2019-03-15T07:10:44.425Z,304.85
2019-03-15T07:11:43.712Z,304.82
2019-03-15T07:12:43.546Z,304.90
2019-03-15T07:13:43.523Z,305.18
2019-03-15T07:14:43.492Z,304.98
2019-03-15T07:15:44.522Z,304.63
2019-03-15T07:16:43.498Z,305.11
2019-03-15T07:17:43.464Z,304.65
2019-03-15T07:18:43.502Z,305.04
2019-03-15T07:19:43.540Z,304.95
2019-03-15T07:20:43.440Z,304.72
2019-03-15T07:21:46.695Z,304.00
2019-03-15T07:22:43.430Z,304.02
2019-03-15T07:23:43.410Z,305.15
2019-03-15T07:24:43.947Z,305.08
2019-03-15T07:25:43.382Z,305.24
2019-03-15T07:26:43.880Z,304.88
2019-03-15T07:27:43.422Z,304.64
2019-03-15T07:28:43.387Z,305.55
2019-03-15T07:29:43.346Z,305.60
2019-03-15T07:30:43.429Z,304.94
2019-03-15T07:31:43.381Z,305.07
2019-03-15T07:32:43.311Z,305.63
2019-03-15T07:33:43.445Z,304.35
2019-03-15T07:34:43.371Z,304.63
2019-03-15T07:35:43.289Z,304.95
2019-03-15T07:36:43.271Z,304.95
2019-03-15T07:37:45.658Z,303.64
2019-03-15T07:38:43.350Z,304.59
2019-03-15T07:39:43.289Z,305.12
2019-03-15T07:40:43.273Z,304.61
2019-03-15T07:41:43.244Z,304.08
2019-03-15T07:42:43.217Z,304.35
2019-03-15T07:43:43.266Z,305.05
2019-03-15T07:44:43.336Z,305.02
2019-03-15T07:45:43.222Z,305.20
2019-03-15T07:46:43.255Z,303.45
2019-03-15T07:47:43.159Z,304.43
2019-03-15T07:48:43.142Z,304.77
2019-03-15T07:49:43.256Z,304.92
2019-03-15T07:50:43.161Z,304.27
2019-03-15T07:51:43.777Z,305.25
2019-03-15T07:52:43.145Z,305.82
2019-03-15T07:53:43.088Z,305.95
2019-03-15T07:54:43.094Z,305.16
2019-03-15T07:55:43.777Z,304.77
2019-03-15T07:56:43.060Z,303.71
2019-03-15T07:57:43.230Z,303.74
2019-03-15T07:58:43.065Z,304.29
2019-03-15T07:59:43.025Z,304.32
2019-03-15T08:00:43.073Z,303.52
2019-03-15T08:01:42.990Z,303.33
2019-03-15T08:02:43.015Z,304.20
2019-03-15T08:03:42.990Z,303.84
2019-03-15T08:04:42.978Z,304.05
2019-03-15T08:05:43.021Z,304.02
2019-03-15T08:06:43.040Z,302.67
2019-03-15T08:07:45.513Z,303.70
2019-03-15T08:08:43.010Z,302.86
2019-03-15T08:09:42.909Z,304.29
2019-03-15T08:10:42.948Z,303.23
2019-03-15T08:11:43.048Z,304.15
2019-03-15T08:12:42.908Z,303.58
2019-03-15T08:13:42.874Z,304.58
2019-03-15T08:14:42.867Z,303.21
2019-03-15T08:15:42.843Z,303.87
2019-03-15T08:16:42.846Z,304.19
2019-03-15T08:17:42.897Z,303.67
2019-03-15T08:18:42.818Z,303.30
2019-03-15T08:19:42.802Z,303.47
2019-03-15T08:20:42.825Z,303.93
2019-03-15T08:21:42.830Z,303.00
2019-03-15T08:22:42.762Z,304.98
2019-03-15T08:23:42.825Z,302.91
2019-03-15T08:24:51.336Z,303.55
2019-03-15T08:25:43.790Z,303.65
2019-03-15T08:26:42.741Z,303.22
2019-03-15T08:27:42.714Z,303.24
2019-03-15T08:28:42.743Z,303.58
2019-03-15T08:29:42.739Z,303.85
2019-03-15T08:30:42.699Z,303.76
2019-03-15T08:31:42.722Z,303.92
2019-03-15T08:32:43.913Z,302.82
2019-03-15T08:33:42.705Z,302.85
2019-03-15T08:34:42.672Z,302.96
2019-03-15T08:35:42.693Z,303.45
2019-03-15T08:36:42.614Z,302.96
2019-03-15T08:37:42.790Z,302.78
2019-03-15T08:38:47.898Z,303.75
2019-03-15T08:39:43.728Z,303.92
2019-03-15T08:40:42.587Z,303.47
2019-03-15T08:41:42.605Z,303.23
2019-03-15T08:42:42.567Z,304.02
2019-03-15T08:43:45.850Z,304.00
2019-03-15T08:44:42.729Z,303.16
2019-03-15T08:45:42.517Z,303.79
2019-03-15T08:46:42.572Z,304.22
2019-03-15T08:47:42.512Z,304.56
2019-03-15T08:48:42.509Z,303.42
2019-03-15T08:49:42.511Z,304.50
2019-03-15T08:50:42.496Z,304.58
2019-03-15T08:51:42.540Z,302.46
2019-03-15T08:52:42.452Z,303.22
2019-03-15T08:53:42.426Z,303.60
2019-03-15T08:54:42.461Z,303.34
2019-03-15T08:55:42.445Z,303.85
2019-03-15T08:56:42.435Z,303.81
2019-03-15T08:57:42.401Z,304.89
2019-03-15T08:58:42.423Z,304.33
2019-03-15T08:59:53.817Z,304.59
2019-03-15T09:00:43.369Z,303.43
2019-03-15T09:01:42.344Z,303.66
2019-03-15T09:02:42.358Z,303.76
2019-03-15T09:03:42.312Z,304.19
2019-03-15T09:04:42.334Z,303.71
2019-03-15T09:05:42.308Z,304.27
2019-03-15T09:06:42.324Z,304.15
2019-03-15T09:07:42.793Z,304.35
2019-03-15T09:08:42.328Z,304.46
2019-03-15T09:09:42.331Z,304.75
2019-03-15T09:10:42.322Z,304.47
2019-03-15T09:11:42.356Z,304.17
2019-03-15T09:12:42.338Z,304.66
2019-03-15T09:13:42.244Z,303.17
2019-03-15T09:14:42.261Z,303.78
2019-03-15T09:15:42.210Z,304.38
2019-03-15T09:16:42.184Z,303.30
2019-03-15T09:17:42.190Z,304.04
2019-03-15T09:18:42.257Z,304.06
2019-03-15T09:19:42.221Z,304.70
2019-03-15T09:20:42.142Z,304.86
2019-03-15T09:21:42.154Z,303.79
2019-03-15T09:22:42.216Z,303.72
2019-03-15T09:23:42.409Z,303.20
2019-03-15T09:24:42.108Z,303.54
2019-03-15T09:25:42.117Z,303.93
2019-03-15T09:26:42.093Z,303.57
2019-03-15T09:27:45.219Z,304.88
2019-03-15T09:28:42.069Z,303.43
2019-03-15T09:29:42.172Z,304.04
2019-03-15T09:30:42.057Z,304.17
2019-03-15T09:31:47.771Z,304.47
2019-03-15T09:32:43.090Z,303.35
2019-03-15T09:33:42.032Z,304.20
2019-03-15T09:34:41.999Z,305.33
2019-03-15T09:35:42.017Z,304.23
2019-03-15T09:36:49.875Z,303.72
2019-03-15T09:37:42.988Z,303.33
2019-03-15T09:38:41.941Z,303.56
2019-03-15T09:39:41.949Z,304.00
2019-03-15T09:40:42.007Z,303.51
2019-03-15T09:41:41.935Z,304.29
2019-03-15T09:42:41.917Z,304.18
2019-03-15T09:43:45.219Z,304.07
2019-03-15T09:44:41.884Z,303.33
2019-03-15T09:45:41.909Z,303.48
2019-03-15T09:46:41.970Z,303.87
2019-03-15T09:47:41.873Z,303.92
2019-03-15T09:48:43.827Z,304.40
2019-03-15T09:49:41.916Z,303.73
2019-03-15T09:50:51.070Z,303.92
2019-03-15T09:51:42.868Z,305.02
2019-03-15T09:52:50.905Z,304.59
2019-03-15T09:53:52.465Z,304.74
2019-03-15T09:55:59.177Z,301.87
2019-03-15T09:56:59.328Z,303.94
2019-03-15T09:57:59.285Z,303.29
2019-03-15T09:58:59.180Z,304.09
2019-03-15T09:59:59.132Z,303.24
2019-03-15T10:00:59.902Z,303.82
2019-03-15T10:01:59.112Z,304.15
2019-03-15T10:02:59.155Z,303.14
2019-03-15T10:05:27.764Z,304.33
2019-03-15T10:06:27.772Z,303.84
2019-03-15T10:07:37.839Z,303.53
2019-03-15T10:08:28.770Z,303.44
2019-03-15T10:09:27.741Z,305.17
2019-03-15T10:10:27.702Z,304.90
2019-03-15T10:11:27.692Z,303.61
2019-03-15T10:12:28.860Z,303.01
2019-03-15T10:13:27.723Z,304.31
2019-03-15T10:14:27.693Z,303.65
2019-03-15T10:15:27.701Z,304.63
2019-03-15T10:16:28.048Z,305.45
2019-03-15T10:17:27.707Z,305.25
2019-03-15T10:18:27.675Z,303.01
2019-03-15T10:19:29.734Z,303.91
2019-03-15T10:20:27.610Z,304.27
2019-03-15T10:21:27.618Z,303.68
2019-03-15T10:22:27.640Z,305.11
2019-03-15T10:23:27.582Z,304.51
2019-03-15T10:24:27.596Z,304.05
2019-03-15T10:25:27.564Z,304.66
2019-03-15T10:26:27.538Z,303.89
2019-03-15T10:27:27.539Z,305.39
2019-03-15T10:28:27.517Z,304.09
2019-03-15T10:29:27.599Z,304.16
2019-03-15T10:30:27.507Z,304.06
2019-03-15T10:31:27.500Z,303.66
2019-03-15T10:32:27.505Z,303.88
2019-03-15T10:33:27.470Z,303.15
2019-03-15T10:34:27.478Z,303.33
2019-03-15T10:35:27.517Z,303.05
2019-03-15T10:36:27.479Z,302.36
2019-03-15T10:37:27.429Z,302.37
2019-03-15T10:38:27.443Z,302.61
2019-03-15T10:39:27.438Z,303.71
2019-03-15T10:40:27.453Z,302.46
2019-03-15T10:41:27.611Z,301.55
2019-03-15T10:42:27.391Z,302.23
2019-03-15T10:43:27.372Z,302.76
2019-03-15T10:44:27.415Z,302.58
2019-03-15T10:45:27.372Z,302.22
2019-03-15T10:46:27.330Z,302.60
2019-03-15T10:47:27.325Z,303.25
2019-03-15T10:48:27.309Z,302.91
2019-03-15T10:49:30.617Z,304.11
2019-03-15T10:50:27.336Z,302.35
2019-03-15T10:51:27.289Z,303.04
2019-03-15T10:52:27.319Z,303.67
2019-03-15T10:53:27.270Z,304.00
2019-03-15T10:54:27.303Z,302.74
2019-03-15T10:55:27.243Z,303.03
2019-03-15T10:56:27.223Z,302.45
2019-03-15T10:57:27.244Z,302.92
2019-03-15T10:58:27.213Z,303.92
2019-03-15T10:59:27.225Z,303.58
2019-03-15T11:00:27.231Z,303.73
2019-03-15T11:01:27.182Z,303.06
2019-03-15T11:02:27.164Z,303.33
2019-03-15T11:03:27.305Z,303.02
2019-03-15T11:04:27.142Z,304.22
2019-03-15T11:05:27.184Z,303.85
2019-03-15T11:06:27.164Z,303.45
2019-03-15T11:07:27.121Z,303.95
2019-03-15T11:08:27.114Z,303.70
2019-03-15T11:09:27.118Z,302.70
2019-03-15T11:10:27.112Z,303.07
2019-03-15T11:11:27.073Z,302.84
2019-03-15T11:12:27.096Z,303.88
2019-03-15T11:13:27.063Z,303.77
2019-03-15T11:14:27.040Z,303.94
2019-03-15T11:15:27.141Z,303.18
2019-03-15T11:16:27.017Z,304.15
2019-03-15T11:17:27.026Z,304.03
2019-03-15T11:18:27.043Z,303.40
2019-03-15T11:19:26.990Z,303.60
2019-03-15T11:20:26.980Z,304.23
2019-03-15T11:21:26.991Z,304.22
2019-03-15T11:22:26.998Z,303.65
2019-03-15T11:23:26.963Z,304.29
2019-03-15T11:24:26.926Z,302.73
2019-03-15T11:25:26.930Z,304.14
2019-03-15T11:26:26.946Z,303.39
2019-03-15T11:27:26.933Z,302.43
2019-03-15T11:28:26.911Z,303.18
2019-03-15T11:29:26.930Z,302.64
2019-03-15T11:30:26.864Z,304.07
2019-03-15T11:31:26.859Z,302.76
2019-03-15T11:32:26.850Z,303.03
2019-03-15T11:33:26.979Z,302.99
2019-03-15T11:34:27.377Z,302.47
2019-03-15T11:35:26.806Z,303.23
2019-03-15T11:36:26.843Z,301.88
2019-03-15T11:37:26.778Z,303.05
2019-03-15T11:38:26.865Z,303.14
2019-03-15T11:39:26.807Z,302.75
2019-03-15T11:40:26.793Z,302.50
2019-03-15T11:41:26.756Z,303.43
2019-03-15T11:42:26.724Z,302.33
2019-03-15T11:43:26.720Z,302.95
2019-03-15T11:44:26.721Z,303.03
2019-03-15T11:45:26.712Z,302.11
2019-03-15T11:46:26.697Z,303.08
2019-03-15T11:47:26.698Z,302.94
2019-03-15T11:48:26.678Z,301.52
2019-03-15T11:49:28.318Z,302.07
2019-03-15T11:50:26.682Z,302.25
2019-03-15T11:51:26.670Z,303.37
2019-03-15T11:52:26.635Z,302.33
2019-03-15T11:53:27.613Z,301.97
2019-03-15T11:54:27.740Z,301.92
2019-03-15T11:55:26.595Z,301.98
2019-03-15T11:56:29.321Z,302.73
2019-03-15T11:57:26.569Z,303.24
2019-03-15T11:58:26.563Z,302.45
2019-03-15T11:59:26.603Z,302.40
2019-03-15T12:00:26.534Z,302.39
2019-03-15T12:01:26.537Z,303.63
2019-03-15T12:02:26.521Z,301.31
2019-03-15T12:03:26.570Z,301.77
2019-03-15T12:04:26.593Z,303.38
2019-03-15T12:05:26.526Z,302.42
2019-03-15T12:06:26.492Z,303.39
2019-03-15T12:07:26.556Z,303.08
2019-03-15T12:08:26.972Z,303.18
2019-03-15T12:09:26.486Z,304.74
2019-03-15T12:10:26.559Z,303.34
2019-03-15T12:11:26.505Z,302.36
2019-03-15T12:12:26.510Z,303.78
2019-03-15T12:13:26.449Z,302.81
2019-03-15T12:14:40.202Z,303.96
2019-03-15T12:15:27.553Z,303.46
2019-03-15T12:16:26.387Z,303.24
2019-03-15T12:17:26.383Z,303.51
2019-03-15T12:18:26.884Z,303.56
2019-03-15T12:19:26.397Z,302.60
2019-03-15T12:20:26.321Z,303.02
2019-03-15T12:21:26.401Z,303.36
2019-03-15T12:22:26.319Z,303.47
2019-03-15T12:23:26.343Z,303.41
2019-03-15T12:24:26.342Z,303.81
2019-03-15T12:25:26.527Z,304.09
2019-03-15T12:26:39.478Z,302.83
2019-03-15T12:27:27.258Z,302.30
2019-03-15T12:28:26.247Z,303.05
2019-03-15T12:29:26.246Z,302.70
2019-03-15T12:30:26.254Z,303.67
2019-03-15T12:31:26.893Z,303.24
2019-03-15T12:32:26.201Z,303.26